Terminal Aerodrome Forecast
Issued by NWS

Current Version | Previous Version | Text Only | Print | Product List | Glossary Off
Versions: 1 2 3 4 5 6 7 8 9 10 11 12 13 14 15 16 17 18 19 20 21 22 23 24 25 26 27 28 29 30 31 32 33

000
FTUS41 KILN 231100
TAFLUK
TAF
KLUK 231127Z 2312/2412 00000KT 1/4SM FG VV002
     FM231300 06003KT 4SM BR SCT008
     FM231500 05004KT P6SM SCT040
     FM231800 04005KT P6SM BKN040
     FM240100 00000KT P6SM VCSH BKN040
     FM240400 00000KT 2SM BR SCT040
     FM240800 00000KT 1/4SM FG VV001=

USA.gov is the U.S. government's official web portal to all federal, state and local government web resources and services.